createdAt,value
2023-02-14T00:00:22.582Z,25.33
2023-02-14T00:02:49.394Z,27.73
2023-02-14T00:05:15.810Z,25.67
2023-02-14T00:07:42.212Z,24.77
2023-02-14T00:10:09.066Z,24.60
2023-02-14T00:15:20.016Z,22.88
2023-02-14T00:17:46.463Z,23.08
2023-02-14T00:20:12.776Z,23.15
2023-02-14T00:22:39.072Z,23.83
2023-02-14T00:25:05.542Z,24.15
2023-02-14T00:27:31.836Z,24.75
2023-02-14T00:30:03.205Z,22.25
2023-02-14T00:32:30.277Z,24.38
2023-02-14T00:34:56.982Z,22.90
2023-02-14T00:37:23.610Z,25.40
2023-02-14T00:39:52.653Z,24.10
2023-02-14T00:42:18.947Z,24.90
2023-02-14T00:44:45.474Z,25.98
2023-02-14T00:47:11.776Z,26.20
2023-02-14T00:49:38.090Z,25.38
2023-02-14T00:52:04.468Z,26.83
2023-02-14T00:54:30.873Z,25.67
2023-02-14T00:56:58.652Z,29.23
2023-02-14T00:59:25.204Z,35.80
2023-02-14T01:01:51.630Z,28.48
2023-02-14T01:04:18.323Z,27.05
2023-02-14T01:06:45.472Z,32.58
2023-02-14T01:09:13.006Z,32.78
2023-02-14T01:11:39.657Z,30.98
2023-02-14T01:14:06.579Z,34.75
2023-02-14T01:19:00.397Z,27.90
2023-02-14T01:21:28.381Z,28.75
2023-02-14T01:23:56.737Z,29.90
2023-02-14T01:26:23.289Z,29.92
2023-02-14T01:28:50.261Z,31.08
2023-02-14T01:31:21.563Z,27.67
2023-02-14T01:33:49.083Z,27.17
2023-02-14T01:36:20.277Z,24.60
2023-02-14T01:38:47.283Z,28.02
2023-02-14T01:41:14.117Z,27.17
2023-02-14T01:43:59.296Z,29.30
2023-02-14T01:46:27.000Z,27.60
2023-02-14T01:48:55.672Z,28.98
2023-02-14T01:51:22.346Z,28.65
2023-02-14T01:53:49.586Z,28.48
2023-02-14T01:56:19.592Z,28.25
2023-02-14T01:58:46.393Z,31.83
2023-02-14T02:01:13.445Z,31.63
2023-02-14T02:03:44.425Z,26.58
2023-02-14T02:06:10.761Z,26.33
2023-02-14T02:08:38.413Z,26.38
2023-02-14T02:11:04.847Z,24.90
2023-02-14T02:13:31.571Z,26.55
2023-02-14T02:16:16.612Z,29.50
2023-02-14T02:18:53.460Z,28.05
2023-02-14T02:21:31.121Z,27.98
2023-02-14T02:24:02.703Z,26.30
2023-02-14T02:26:47.813Z,24.10
2023-02-14T02:29:30.142Z,23.83
2023-02-14T02:32:06.999Z,24.95
2023-02-14T02:34:52.231Z,23.25
2023-02-14T02:37:38.792Z,26.33
2023-02-14T02:40:17.307Z,25.58
2023-02-14T02:42:57.716Z,24.13
2023-02-14T02:45:27.063Z,37.63
2023-02-14T02:47:56.031Z,32.55
2023-02-14T02:50:43.691Z,33.25
2023-02-14T02:53:19.487Z,27.30
2023-02-14T02:56:04.389Z,26.80
2023-02-14T02:58:35.453Z,26.25
2023-02-14T03:01:03.260Z,25.48
2023-02-14T03:03:50.311Z,25.60
2023-02-14T03:06:16.670Z,24.45
2023-02-14T03:08:45.011Z,30.88
2023-02-14T03:11:12.536Z,28.83
2023-02-14T03:13:43.827Z,27.90
2023-02-14T03:16:12.734Z,30.38
2023-02-14T03:19:10.123Z,26.58
2023-02-14T03:21:36.547Z,24.80
2023-02-14T03:24:02.993Z,27.10
2023-02-14T03:26:32.384Z,25.30
2023-02-14T03:29:08.002Z,25.95
2023-02-14T03:31:38.635Z,23.80
2023-02-14T03:34:24.896Z,24.23
2023-02-14T03:36:57.276Z,25.20
2023-02-14T03:39:47.081Z,24.30
2023-02-14T03:42:19.560Z,23.10
2023-02-14T03:44:47.428Z,25.27
2023-02-14T03:47:17.644Z,23.45
2023-02-14T03:49:46.792Z,22.67
2023-02-14T03:52:14.334Z,25.55
2023-02-14T03:54:40.720Z,23.75
2023-02-14T03:57:16.275Z,22.67
2023-02-14T03:59:42.944Z,22.25
2023-02-14T04:02:11.823Z,23.20
2023-02-14T04:04:40.544Z,22.25
2023-02-14T04:07:14.435Z,21.95
2023-02-14T04:09:40.858Z,21.48
2023-02-14T04:12:07.364Z,20.52
2023-02-14T04:14:33.711Z,19.38
2023-02-14T04:17:18.567Z,21.50
2023-02-14T04:19:44.910Z,20.23
2023-02-14T04:22:11.388Z,21.95
2023-02-14T04:24:37.733Z,23.13
2023-02-14T04:27:10.826Z,21.15
2023-02-14T04:29:43.407Z,22.27
2023-02-14T04:32:11.292Z,21.63
2023-02-14T04:34:37.864Z,26.95
2023-02-14T04:37:04.596Z,24.52
2023-02-14T04:39:30.906Z,24.48
2023-02-14T04:41:57.264Z,23.40
2023-02-14T04:44:23.852Z,24.80
2023-02-14T04:46:50.486Z,24.52
2023-02-14T04:49:16.901Z,25.50
2023-02-14T04:51:43.375Z,23.33
2023-02-14T04:54:09.750Z,26.80
2023-02-14T04:56:36.111Z,21.60
2023-02-14T04:59:02.432Z,22.25
2023-02-14T05:01:28.824Z,22.08
2023-02-14T05:03:55.333Z,21.20
2023-02-14T05:06:21.692Z,22.33
2023-02-14T05:08:48.017Z,21.08
2023-02-14T05:11:14.580Z,21.35
2023-02-14T05:13:40.937Z,23.38
2023-02-14T05:16:07.373Z,21.90
2023-02-14T05:18:33.720Z,21.35
2023-02-14T05:21:02.928Z,21.60
2023-02-14T05:23:31.924Z,25.83
2023-02-14T05:25:58.291Z,22.15
2023-02-14T05:28:24.631Z,23.42
2023-02-14T05:30:52.098Z,22.67
2023-02-14T05:33:18.519Z,21.63
2023-02-14T05:35:45.039Z,23.40
2023-02-14T05:38:14.019Z,22.63
2023-02-14T05:40:40.652Z,21.17
2023-02-14T05:43:07.328Z,19.75
2023-02-14T05:45:33.800Z,20.23
2023-02-14T05:48:00.310Z,21.95
2023-02-14T05:50:27.047Z,21.20
2023-02-14T05:52:53.917Z,21.70
2023-02-14T05:55:20.345Z,20.38
2023-02-14T05:57:47.058Z,20.55
2023-02-14T06:00:13.883Z,21.00
2023-02-14T06:05:06.853Z,19.88
2023-02-14T06:07:33.217Z,19.30
2023-02-14T06:09:59.571Z,19.75
2023-02-14T06:12:25.921Z,20.58
2023-02-14T06:14:52.348Z,22.13
2023-02-14T06:17:18.684Z,20.60
2023-02-14T06:19:45.037Z,20.27
2023-02-14T06:22:11.444Z,20.83
2023-02-14T06:24:37.841Z,21.52
2023-02-14T06:27:04.279Z,27.70
2023-02-14T06:29:30.732Z,32.05
2023-02-14T06:31:57.133Z,29.58
2023-02-14T06:34:23.493Z,30.00
2023-02-14T06:36:49.835Z,28.25
2023-02-14T06:39:16.178Z,27.27
2023-02-14T06:41:42.572Z,25.42
2023-02-14T06:44:10.311Z,25.42
2023-02-14T06:46:36.741Z,24.48
2023-02-14T06:49:03.130Z,24.38
2023-02-14T06:51:29.551Z,23.48
2023-02-14T06:53:55.969Z,23.08
2023-02-14T06:56:22.402Z,24.95
2023-02-14T06:58:48.771Z,25.08
2023-02-14T07:01:15.179Z,24.27
2023-02-14T07:03:42.043Z,24.42
2023-02-14T07:08:34.631Z,23.08
2023-02-14T07:11:01.423Z,22.23
2023-02-14T07:13:28.094Z,23.17
2023-02-14T07:15:54.542Z,22.67
2023-02-14T07:18:20.900Z,22.85
2023-02-14T07:20:47.289Z,23.88
2023-02-14T07:23:13.590Z,22.95
2023-02-14T07:25:40.717Z,24.73
2023-02-14T07:28:07.152Z,24.73
2023-02-14T07:30:33.588Z,22.42
2023-02-14T07:32:59.948Z,22.95
2023-02-14T07:35:26.360Z,24.33
2023-02-14T07:37:52.793Z,24.02
2023-02-14T07:40:20.010Z,24.02
2023-02-14T07:43:04.269Z,22.60
2023-02-14T07:45:30.568Z,23.02
2023-02-14T07:47:59.900Z,21.90
2023-02-14T07:50:26.301Z,22.50
2023-02-14T07:52:52.607Z,22.42
2023-02-14T07:55:19.357Z,21.50
2023-02-14T07:57:47.173Z,21.65
2023-02-14T08:00:14.950Z,22.33
2023-02-14T08:02:41.418Z,20.75
2023-02-14T08:05:08.050Z,20.17
2023-02-14T08:07:34.408Z,21.88
2023-02-14T08:10:00.713Z,20.33
2023-02-14T08:12:45.567Z,22.30
2023-02-14T08:15:30.517Z,20.10
2023-02-14T08:17:57.060Z,19.92
2023-02-14T08:20:23.482Z,21.15
2023-02-14T08:22:50.035Z,21.65
2023-02-14T08:25:16.341Z,22.70
2023-02-14T08:27:42.635Z,22.25
2023-02-14T08:30:09.193Z,24.20
2023-02-14T08:32:35.719Z,25.63
2023-02-14T08:35:02.168Z,27.50
2023-02-14T08:37:28.620Z,25.98
2023-02-14T08:39:54.971Z,27.88
2023-02-14T08:42:21.289Z,27.65
2023-02-14T08:44:47.768Z,25.58
2023-02-14T08:47:14.120Z,26.20
2023-02-14T08:49:40.464Z,25.52
2023-02-14T08:52:06.799Z,26.08
2023-02-14T08:54:33.961Z,24.77
2023-02-14T08:57:07.757Z,25.05
2023-02-14T08:59:34.468Z,25.83
2023-02-14T09:02:00.872Z,25.00
2023-02-14T09:04:27.413Z,25.52
2023-02-14T09:06:53.812Z,24.00
2023-02-14T09:09:20.504Z,26.63
2023-02-14T09:11:46.882Z,27.10
2023-02-14T09:14:13.425Z,26.83
2023-02-14T09:16:39.938Z,24.88
2023-02-14T09:19:06.401Z,27.15
2023-02-14T09:21:34.147Z,25.52
2023-02-14T09:24:00.500Z,28.15
2023-02-14T09:26:27.403Z,25.50
2023-02-14T09:28:53.739Z,27.30
2023-02-14T09:31:21.810Z,26.98
2023-02-14T09:34:07.811Z,26.88
2023-02-14T09:36:52.598Z,26.20
2023-02-14T09:39:19.156Z,26.52
2023-02-14T09:41:55.273Z,25.67
2023-02-14T09:44:24.430Z,25.92
2023-02-14T09:46:53.109Z,23.92
2023-02-14T09:49:23.725Z,24.77
2023-02-14T09:51:51.558Z,24.27
2023-02-14T09:54:23.665Z,24.42
2023-02-14T09:56:56.149Z,22.88
2023-02-14T09:59:22.739Z,24.08
2023-02-14T10:01:56.627Z,22.27
2023-02-14T10:04:28.952Z,22.27
2023-02-14T10:07:09.887Z,22.90
2023-02-14T10:09:39.312Z,22.00
2023-02-14T10:12:10.599Z,23.13
2023-02-14T10:14:40.816Z,22.15
2023-02-14T10:17:15.540Z,19.92
2023-02-14T10:19:44.236Z,22.30
2023-02-14T10:22:33.706Z,21.33
2023-02-14T10:25:06.918Z,20.90
2023-02-14T10:27:39.578Z,19.42
2023-02-14T10:30:14.793Z,21.10
2023-02-14T10:32:46.430Z,20.92
2023-02-14T10:35:24.804Z,20.85
2023-02-14T10:37:58.245Z,20.92
2023-02-14T10:40:39.879Z,21.55
2023-02-14T10:43:15.464Z,21.02
2023-02-14T10:45:47.351Z,20.17
2023-02-14T10:48:22.733Z,20.55
2023-02-14T10:50:55.317Z,20.65
2023-02-14T10:53:25.769Z,21.88
2023-02-14T10:55:57.210Z,20.10
2023-02-14T10:58:26.127Z,21.38
2023-02-14T11:01:02.110Z,21.70
2023-02-14T11:03:29.504Z,20.92
2023-02-14T11:05:56.041Z,21.50
2023-02-14T11:08:25.928Z,20.77
2023-02-14T11:10:53.834Z,22.13
2023-02-14T11:13:27.638Z,21.23
2023-02-14T11:15:54.150Z,19.15
2023-02-14T11:18:24.892Z,19.65
2023-02-14T11:21:02.829Z,19.95
2023-02-14T11:23:32.413Z,20.45
2023-02-14T11:26:00.721Z,20.65
2023-02-14T11:28:27.627Z,19.42
2023-02-14T11:35:50.338Z,17.77
2023-02-14T11:38:26.678Z,19.55
2023-02-14T11:40:55.076Z,18.23
2023-02-14T11:43:30.677Z,20.48
2023-02-14T11:46:15.065Z,19.23
2023-02-14T11:49:07.920Z,18.85
2023-02-14T11:51:35.952Z,19.73
2023-02-14T11:54:05.572Z,18.90
2023-02-14T11:56:47.103Z,18.55
2023-02-14T11:59:21.750Z,18.92
2023-02-14T12:01:48.168Z,19.15
2023-02-14T12:04:17.645Z,19.52
2023-02-14T12:06:45.715Z,19.25
2023-02-14T12:09:17.862Z,19.30
2023-02-14T12:11:54.559Z,19.40
2023-02-14T12:14:22.144Z,19.13
2023-02-14T12:17:07.205Z,19.33
2023-02-14T12:19:42.202Z,19.83
2023-02-14T12:22:12.951Z,18.58
2023-02-14T12:24:49.595Z,18.95
2023-02-14T12:27:27.992Z,19.50
2023-02-14T12:29:58.216Z,19.70
2023-02-14T12:32:26.042Z,20.27
2023-02-14T12:34:56.173Z,19.77
2023-02-14T12:37:22.486Z,19.55
2023-02-14T12:40:01.895Z,19.80
2023-02-14T12:42:34.421Z,18.48
2023-02-14T12:45:19.163Z,19.08
2023-02-14T12:47:45.438Z,19.60
2023-02-14T12:50:31.498Z,20.05
2023-02-14T12:53:16.384Z,18.55
2023-02-14T12:55:48.889Z,18.63
2023-02-14T12:58:18.380Z,17.30
2023-02-14T13:00:50.514Z,18.23
2023-02-14T13:03:35.444Z,18.10
2023-02-14T13:06:20.591Z,17.52
2023-02-14T13:08:46.983Z,19.17
2023-02-14T13:11:32.605Z,18.30
2023-02-14T13:14:17.616Z,19.10
2023-02-14T13:16:43.952Z,18.90
2023-02-14T13:21:37.441Z,18.20
2023-02-14T13:24:21.772Z,18.42
2023-02-14T13:26:56.272Z,16.85
2023-02-14T13:29:24.440Z,18.90
2023-02-14T13:31:52.688Z,18.30
2023-02-14T13:34:24.944Z,17.58
2023-02-14T13:36:51.557Z,17.77
2023-02-14T13:39:36.133Z,17.80
2023-02-14T13:42:04.944Z,18.20
2023-02-14T13:44:48.887Z,17.17
2023-02-14T13:47:16.773Z,17.83
2023-02-14T13:50:09.301Z,17.83
2023-02-14T13:52:38.762Z,18.73
2023-02-14T13:55:07.141Z,17.88
2023-02-14T13:57:36.355Z,17.83
2023-02-14T14:00:17.801Z,17.25
2023-02-14T14:02:47.069Z,17.33
2023-02-14T14:05:39.498Z,18.08
2023-02-14T14:08:17.983Z,17.00
2023-02-14T14:10:45.547Z,17.00
2023-02-14T14:13:31.804Z,17.70
2023-02-14T14:16:16.879Z,17.90
2023-02-14T14:18:44.011Z,17.35
2023-02-14T14:21:23.524Z,17.17
2023-02-14T14:24:02.517Z,17.50
2023-02-14T14:26:36.808Z,16.92
2023-02-14T14:29:10.886Z,17.08
2023-02-14T14:31:37.404Z,17.08
2023-02-14T14:34:03.857Z,17.60
2023-02-14T14:36:30.442Z,17.50
2023-02-14T14:38:56.862Z,18.58
2023-02-14T14:41:28.590Z,17.95
2023-02-14T14:43:55.028Z,17.70
2023-02-14T14:46:22.376Z,17.75
2023-02-14T14:48:50.728Z,17.30
2023-02-14T14:51:29.897Z,18.00
2023-02-14T14:54:19.756Z,17.98
2023-02-14T14:56:56.757Z,17.35
2023-02-14T14:59:23.168Z,16.60
2023-02-14T15:01:54.188Z,16.73
2023-02-14T15:04:30.538Z,17.02
2023-02-14T15:06:57.747Z,17.95
2023-02-14T15:09:31.654Z,17.83
2023-02-14T15:12:17.844Z,17.27
2023-02-14T15:14:46.353Z,17.65
2023-02-14T15:17:18.964Z,16.67
2023-02-14T15:19:47.268Z,17.45
2023-02-14T15:22:21.485Z,17.13
2023-02-14T15:24:48.319Z,18.02
2023-02-14T15:27:19.000Z,16.95
2023-02-14T15:29:56.427Z,17.98
2023-02-14T15:32:23.489Z,16.40
2023-02-14T15:34:49.924Z,16.88
2023-02-14T15:37:16.501Z,18.73
2023-02-14T15:44:46.718Z,17.00
2023-02-14T15:47:14.535Z,17.45
2023-02-14T15:49:42.672Z,17.90
2023-02-14T15:52:13.991Z,17.52
2023-02-14T15:54:47.249Z,18.20
2023-02-14T15:57:19.336Z,17.48
2023-02-14T15:59:45.734Z,18.27
2023-02-14T16:02:12.130Z,18.58
2023-02-14T16:04:38.552Z,17.80
2023-02-14T16:07:25.265Z,19.05
2023-02-14T16:10:12.559Z,18.05
2023-02-14T16:12:40.098Z,18.00
2023-02-14T16:15:15.624Z,18.65
2023-02-14T16:17:44.141Z,18.30
2023-02-14T16:20:22.804Z,18.52
2023-02-14T16:22:49.925Z,18.60
2023-02-14T16:25:16.401Z,18.35
2023-02-14T16:27:42.880Z,18.30
2023-02-14T16:30:17.516Z,18.67
2023-02-14T16:32:48.658Z,18.67
2023-02-14T16:35:18.046Z,18.58
2023-02-14T16:37:46.173Z,18.83
2023-02-14T16:40:14.282Z,18.95
2023-02-14T16:42:41.010Z,20.40
2023-02-14T16:47:33.719Z,18.45
2023-02-14T16:50:00.143Z,19.55
2023-02-14T16:52:27.635Z,18.30
2023-02-14T16:54:54.079Z,20.55
2023-02-14T16:57:22.962Z,19.27
2023-02-14T16:59:50.203Z,18.83
2023-02-14T17:02:18.915Z,19.60
2023-02-14T17:04:45.356Z,19.60
2023-02-14T17:07:12.568Z,20.55
2023-02-14T17:09:41.249Z,20.67
2023-02-14T17:12:13.193Z,20.08
2023-02-14T17:14:40.702Z,20.98
2023-02-14T17:17:07.143Z,19.65
2023-02-14T17:19:33.783Z,20.33
2023-02-14T17:22:00.316Z,19.70
2023-02-14T17:24:26.760Z,20.52
2023-02-14T17:26:53.138Z,19.80
2023-02-14T17:29:19.529Z,19.05
2023-02-14T17:31:45.944Z,19.50
2023-02-14T17:34:12.466Z,19.70
2023-02-14T17:36:38.820Z,20.27
2023-02-14T17:39:05.461Z,20.05
2023-02-14T17:41:32.091Z,20.88
2023-02-14T17:44:01.890Z,21.05
2023-02-14T17:46:28.885Z,21.77
2023-02-14T17:48:55.949Z,21.80
2023-02-14T17:51:22.578Z,21.63
2023-02-14T17:53:49.416Z,21.75
2023-02-14T17:58:44.225Z,21.50
2023-02-14T18:01:11.540Z,22.13
2023-02-14T18:03:38.805Z,38.83
2023-02-14T18:06:05.786Z,30.15
2023-02-14T18:08:36.865Z,23.42
2023-02-14T18:11:06.979Z,24.10
2023-02-14T18:13:33.909Z,24.45
2023-02-14T18:16:10.134Z,23.42
2023-02-14T18:18:36.988Z,23.88
2023-02-14T18:21:04.255Z,22.90
2023-02-14T18:23:31.088Z,23.70
2023-02-14T18:28:24.970Z,22.05
2023-02-14T18:30:52.070Z,22.23
2023-02-14T18:33:18.619Z,23.50
2023-02-14T18:35:45.305Z,21.70
2023-02-14T18:38:12.462Z,22.55
2023-02-14T18:40:39.617Z,22.45
2023-02-14T18:43:06.089Z,21.90
2023-02-14T18:45:38.814Z,23.05
2023-02-14T18:48:05.483Z,22.10
2023-02-14T18:50:33.370Z,21.98
2023-02-14T18:52:59.828Z,21.00
2023-02-14T18:55:26.248Z,20.58
2023-02-14T18:57:52.978Z,21.67
2023-02-14T19:02:45.775Z,20.95
2023-02-14T19:05:12.454Z,22.63
2023-02-14T19:07:38.840Z,22.10
2023-02-14T19:10:05.586Z,22.00
2023-02-14T19:12:33.216Z,22.02
2023-02-14T19:15:00.019Z,22.02
2023-02-14T19:17:26.519Z,22.83
2023-02-14T19:19:53.752Z,25.95
2023-02-14T19:22:20.892Z,25.13
2023-02-14T19:24:47.243Z,25.05
2023-02-14T19:27:13.654Z,23.52
2023-02-14T19:29:39.979Z,24.55
2023-02-14T19:32:06.375Z,24.45
2023-02-14T19:34:33.325Z,25.13
2023-02-14T19:39:29.555Z,24.15
2023-02-14T19:41:56.414Z,26.08
2023-02-14T19:46:54.326Z,24.30
2023-02-14T19:49:20.859Z,25.15
2023-02-14T19:51:53.819Z,23.80
2023-02-14T19:54:21.922Z,22.67
2023-02-14T19:56:48.343Z,22.55
2023-02-14T19:59:19.620Z,22.45
2023-02-14T20:01:47.059Z,22.38
2023-02-14T20:04:15.127Z,21.52
2023-02-14T20:06:42.371Z,21.10
2023-02-14T20:09:09.293Z,19.92
2023-02-14T20:14:03.309Z,20.60
2023-02-14T20:16:30.521Z,23.13
2023-02-14T20:18:57.449Z,24.63
2023-02-14T20:23:52.172Z,22.48
2023-02-14T20:28:44.891Z,23.45
2023-02-14T20:31:12.334Z,23.90
2023-02-14T20:33:38.947Z,26.02
2023-02-14T20:36:06.175Z,27.13
2023-02-14T20:38:33.412Z,28.52
2023-02-14T20:41:10.552Z,31.00
2023-02-14T20:43:37.439Z,28.50
2023-02-14T20:53:23.801Z,23.27
2023-02-14T20:58:16.388Z,22.40
2023-02-14T21:00:42.741Z,22.98
2023-02-14T21:03:09.071Z,23.52
2023-02-14T21:05:35.466Z,24.35
2023-02-14T21:08:01.872Z,23.17
2023-02-14T21:10:28.340Z,23.92
2023-02-14T21:12:55.263Z,22.88
2023-02-14T21:15:21.642Z,22.52
2023-02-14T21:17:47.989Z,23.75
2023-02-14T21:20:15.011Z,24.35
2023-02-14T21:22:41.308Z,24.90
2023-02-14T21:25:07.813Z,23.00
2023-02-14T21:27:34.212Z,23.02
2023-02-14T21:30:00.603Z,24.20
2023-02-14T21:32:28.531Z,22.15
2023-02-14T21:34:55.338Z,23.13
2023-02-14T21:37:22.415Z,22.75
2023-02-14T21:39:50.118Z,25.20
2023-02-14T21:42:18.398Z,23.27
2023-02-14T21:45:03.197Z,23.58
2023-02-14T21:47:29.601Z,24.42
2023-02-14T21:50:14.600Z,23.73
2023-02-14T21:52:40.967Z,22.75
2023-02-14T21:55:07.371Z,23.40
2023-02-14T21:57:33.972Z,22.58
2023-02-14T22:00:00.466Z,22.92
2023-02-14T22:02:26.971Z,22.10
2023-02-14T22:04:53.312Z,21.85
2023-02-14T22:07:19.616Z,21.08
2023-02-14T22:09:46.061Z,21.08
2023-02-14T22:12:12.434Z,22.23
2023-02-14T22:14:38.741Z,22.65
2023-02-14T22:17:05.130Z,22.38
2023-02-14T22:19:31.475Z,21.73
2023-02-14T22:21:57.827Z,21.48
2023-02-14T22:24:24.369Z,21.63
2023-02-14T22:26:50.669Z,21.15
2023-02-14T22:29:16.975Z,21.13
2023-02-14T22:31:43.610Z,21.15
2023-02-14T22:36:36.696Z,20.50
2023-02-14T22:39:03.800Z,20.98
2023-02-14T22:41:30.371Z,22.77
2023-02-14T22:43:57.331Z,23.40
2023-02-14T22:46:25.290Z,23.05
2023-02-14T22:48:52.111Z,21.85
2023-02-14T22:51:24.569Z,21.98
2023-02-14T22:53:52.178Z,23.08
2023-02-14T22:56:20.067Z,22.95
2023-02-14T22:58:46.618Z,23.20
2023-02-14T23:01:17.219Z,23.15
2023-02-14T23:03:44.270Z,22.58
2023-02-14T23:08:43.209Z,20.15
2023-02-14T23:11:14.272Z,20.10
2023-02-14T23:13:58.994Z,19.77
2023-02-14T23:16:44.209Z,18.58
2023-02-14T23:19:33.272Z,19.52
2023-02-14T23:22:02.992Z,19.27
2023-02-14T23:24:29.370Z,19.23
2023-02-14T23:26:55.725Z,19.67
2023-02-14T23:29:22.118Z,19.33
2023-02-14T23:31:48.679Z,20.10
2023-02-14T23:34:15.072Z,18.73
2023-02-14T23:36:41.431Z,18.00
2023-02-14T23:39:07.840Z,18.73
2023-02-14T23:41:49.830Z,19.67
2023-02-14T23:44:17.347Z,19.10
2023-02-14T23:46:44.112Z,20.25
2023-02-14T23:49:10.676Z,19.98
2023-02-14T23:51:37.359Z,19.60
2023-02-14T23:54:03.908Z,19.20
2023-02-14T23:56:30.274Z,20.35
2023-02-14T23:58:56.652Z,20.58
